Time;durP1;ratioP1;P1;durP2;ratioP2;P2;SDS_P1;SDS_P2;PMS_P1;PMS_P2;Temp;Humidity;BMP_temperature;BMP_pressure;BME280_temperature;BME280_humidity;BME280_pressure;Samples;Min_cycle;Max_cycle;Signal;HPM_P1;HPM_P2
2023/05/30 00:01:06;;;;;;;6.93;2.70;;;10.70;1.00;;;;;;5119191;28;20537;-60
2023/05/30 00:03:35;;;;;;;6.40;2.93;;;10.60;1.00;;;;;;5119111;28;20466;-60
2023/05/30 00:06:02;;;;;;;9.33;3.50;;;10.60;1.00;;;;;;5119303;28;20831;-60
2023/05/30 00:08:29;;;;;;;9.20;3.60;;;10.60;1.00;;;;;;5119280;28;20457;-60
2023/05/30 00:10:57;;;;;;;6.93;2.90;;;10.50;1.00;;;;;;5118755;28;20562;-60
2023/05/30 00:13:24;;;;;;;7.10;2.80;;;10.50;1.00;;;;;;5119008;28;20467;-60
2023/05/30 00:15:54;;;;;;;9.20;3.40;;;10.50;1.00;;;;;;5118950;28;20463;-61
2023/05/30 00:18:23;;;;;;;8.10;3.30;;;10.40;1.00;;;;;;5119120;28;20464;-60
2023/05/30 00:20:51;;;;;;;8.93;3.60;;;10.40;1.00;;;;;;5118533;28;20563;-60
2023/05/30 00:23:20;;;;;;;9.43;3.30;;;10.40;1.00;;;;;;5118879;28;20860;-60
2023/05/30 00:25:48;;;;;;;8.43;3.10;;;10.40;1.00;;;;;;5118685;28;20536;-60
2023/05/30 00:28:15;;;;;;;6.13;3.50;;;10.20;1.00;;;;;;5119164;28;20486;-60
2023/05/30 00:30:43;;;;;;;8.23;3.93;;;10.30;24.90;;;;;;5118207;28;20459;-60
2023/05/30 00:33:10;;;;;;;7.33;3.13;;;10.20;43.00;;;;;;5118290;28;20463;-60
2023/05/30 00:35:39;;;;;;;11.00;3.70;;;10.20;62.80;;;;;;5118417;28;20529;-60
2023/05/30 00:38:06;;;;;;;6.73;3.20;;;10.10;97.40;;;;;;5118480;28;20467;-60
2023/05/30 00:40:33;;;;;;;6.50;3.40;;;10.10;99.90;;;;;;5118515;28;20554;-61
2023/05/30 00:43:00;;;;;;;10.17;3.10;;;10.10;99.90;;;;;;5118271;28;20515;-60
2023/05/30 00:45:27;;;;;;;9.97;3.67;;;10.10;99.90;;;;;;5118264;28;20453;-60
2023/05/30 00:47:55;;;;;;;4.13;2.90;;;10.10;99.90;;;;;;5118566;28;20550;-61
2023/05/30 00:50:26;;;;;;;10.80;3.27;;;10.00;99.90;;;;;;5118583;28;20558;-60
2023/05/30 00:52:55;;;;;;;5.47;3.07;;;10.00;99.90;;;;;;5118090;28;20470;-61
2023/05/30 00:55:23;;;;;;;7.70;3.40;;;9.90;99.90;;;;;;5118172;28;20562;-61
2023/05/30 00:57:51;;;;;;;7.63;3.47;;;9.80;1.00;;;;;;5118123;28;20437;-61
2023/05/30 01:00:19;;;;;;;9.47;3.90;;;9.80;1.00;;;;;;5118141;28;20554;-60
2023/05/30 01:02:47;;;;;;;12.90;3.83;;;9.70;1.00;;;;;;5116331;28;20552;-60
2023/05/30 01:05:15;;;;;;;8.33;3.57;;;9.70;1.00;;;;;;5117297;28;20464;-60
2023/05/30 01:07:43;;;;;;;5.17;3.83;;;9.70;1.00;;;;;;5118214;28;20756;-60
2023/05/30 01:10:13;;;;;;;9.23;3.70;;;9.70;1.00;;;;;;5117888;28;20496;-61
2023/05/30 01:12:46;;;;;;;8.17;3.70;;;9.60;1.00;;;;;;5118098;28;20460;-60
2023/05/30 01:15:16;;;;;;;10.80;3.63;;;9.60;23.90;;;;;;5117569;28;20463;-60
2023/05/30 01:17:52;;;;;;;10.40;3.70;;;9.50;79.00;;;;;;5117703;28;20438;-61
2023/05/30 01:20:24;;;;;;;13.50;4.73;;;9.40;99.90;;;;;;5117864;28;20433;-60
2023/05/30 01:23:18;;;;;;;11.57;3.90;;;9.40;99.90;;;;;;5117730;28;20491;-61
2023/05/30 01:26:07;;;;;;;7.33;4.23;;;9.40;99.90;;;;;;5118088;28;20438;-61
2023/05/30 01:28:38;;;;;;;9.53;3.97;;;9.30;99.90;;;;;;5117873;28;20459;-61
2023/05/30 01:31:08;;;;;;;8.20;3.97;;;9.30;99.90;;;;;;5117874;28;20574;-61
2023/05/30 01:33:37;;;;;;;9.87;3.10;;;9.30;99.90;;;;;;5117496;28;20516;-61
2023/05/30 01:36:05;;;;;;;11.03;4.00;;;9.20;99.90;;;;;;5117722;28;20559;-60
2023/05/30 01:38:34;;;;;;;7.90;3.73;;;9.20;99.90;;;;;;5118009;28;20462;-60
2023/05/30 01:41:02;;;;;;;8.80;4.20;;;9.20;99.90;;;;;;5117253;28;20554;-60
2023/05/30 01:43:44;;;;;;;10.83;3.47;;;9.20;1.00;;;;;;5117432;28;20472;-61
2023/05/30 01:46:21;;;;;;;14.13;4.00;;;9.10;1.00;;;;;;5117633;28;20814;-60
2023/05/30 01:48:56;;;;;;;12.20;4.00;;;9.10;1.00;;;;;;5117331;28;20917;-61
2023/05/30 01:51:29;;;;;;;12.23;3.40;;;9.00;1.00;;;;;;5117729;28;20722;-61
2023/05/30 01:54:00;;;;;;;9.93;3.60;;;9.00;1.00;;;;;;5117588;28;20478;-60
2023/05/30 01:56:29;;;;;;;9.80;3.40;;;9.10;1.00;;;;;;5117543;28;20459;-61
2023/05/30 01:58:58;;;;;;;11.97;4.90;;;9.00;81.60;;;;;;5117006;28;20486;-61
2023/05/30 02:01:29;;;;;;;12.70;4.30;;;9.10;99.90;;;;;;5116984;28;20578;-61
2023/05/30 02:03:56;;;;;;;13.40;4.00;;;9.00;99.90;;;;;;5117385;28;20949;-61
2023/05/30 02:06:24;;;;;;;12.53;4.77;;;8.90;99.90;;;;;;5117421;28;20471;-60
2023/05/30 02:08:52;;;;;;;9.53;4.60;;;8.90;99.90;;;;;;5117172;28;20459;-61
2023/05/30 02:11:19;;;;;;;11.10;4.50;;;8.80;99.90;;;;;;5116554;28;20459;-61
2023/05/30 02:13:46;;;;;;;11.93;4.63;;;8.80;99.90;;;;;;5119648;28;20452;-60
2023/05/30 02:16:17;;;;;;;10.23;4.80;;;8.80;1.00;;;;;;5121021;28;20459;-61
2023/05/30 02:18:44;;;;;;;14.23;4.73;;;8.80;1.00;;;;;;5120645;28;20464;-61
2023/05/30 02:21:12;;;;;;;11.10;5.10;;;8.80;1.00;;;;;;5120815;28;20471;-61
2023/05/30 02:23:39;;;;;;;12.37;5.50;;;8.80;1.00;;;;;;5120741;28;20491;-61
2023/05/30 02:26:06;;;;;;;10.53;4.33;;;8.80;1.00;;;;;;5121043;28;20459;-61
2023/05/30 02:28:34;;;;;;;10.50;4.03;;;8.70;1.00;;;;;;5120908;28;20546;-61
2023/05/30 02:31:02;;;;;;;13.83;5.40;;;8.80;1.00;;;;;;5120595;28;20540;-60
2023/05/30 02:33:31;;;;;;;12.00;5.40;;;8.80;1.00;;;;;;5121085;28;20756;-61
2023/05/30 02:35:58;;;;;;;11.63;5.20;;;8.80;7.90;;;;;;5121220;28;20459;-61
2023/05/30 02:38:25;;;;;;;18.97;5.90;;;8.70;36.00;;;;;;5120753;28;20459;-61
2023/05/30 02:40:53;;;;;;;14.27;5.30;;;8.70;97.20;;;;;;5120860;28;20894;-61
2023/05/30 02:43:20;;;;;;;11.27;6.00;;;8.80;99.90;;;;;;5120863;28;20454;-61
2023/05/30 02:45:48;;;;;;;14.80;6.20;;;8.70;99.90;;;;;;5120057;28;21014;-61
2023/05/30 02:48:15;;;;;;;12.13;5.63;;;8.70;99.90;;;;;;5120603;28;20459;-61
2023/05/30 02:50:44;;;;;;;15.37;5.67;;;8.80;99.90;;;;;;5119998;28;20430;-61
2023/05/30 02:53:11;;;;;;;9.73;5.53;;;8.90;99.90;;;;;;5120108;28;20554;-61
2023/05/30 02:55:42;;;;;;;13.17;5.13;;;8.90;99.90;;;;;;5120222;28;20557;-61
2023/05/30 02:58:11;;;;;;;11.30;6.20;;;9.00;99.90;;;;;;5120668;28;20510;-61
2023/05/30 03:00:39;;;;;;;11.13;5.80;;;9.10;99.90;;;;;;5120495;28;20459;-61
2023/05/30 03:03:08;;;;;;;21.53;6.33;;;9.10;99.90;;;;;;5120036;28;20505;-61
2023/05/30 03:05:35;;;;;;;9.20;5.43;;;9.10;99.90;;;;;;5120188;28;20916;-61
2023/05/30 03:08:04;;;;;;;13.47;5.60;;;9.10;99.90;;;;;;5120481;28;20463;-61
2023/05/30 03:10:32;;;;;;;13.20;6.73;;;9.10;99.90;;;;;;5120578;28;20473;-63
2023/05/30 03:12:59;;;;;;;12.10;6.97;;;9.00;99.90;;;;;;5119923;28;20818;-61
2023/05/30 03:15:26;;;;;;;15.43;7.13;;;8.90;99.90;;;;;;5120114;28;20539;-62
2023/05/30 03:17:54;;;;;;;15.83;6.90;;;9.00;99.90;;;;;;5119803;28;20516;-62
2023/05/30 03:20:23;;;;;;;20.90;8.93;;;8.90;99.90;;;;;;5120270;28;20459;-62
2023/05/30 03:22:50;;;;;;;18.20;7.83;;;8.90;99.90;;;;;;5119676;28;20471;-62
2023/05/30 03:25:18;;;;;;;21.43;8.10;;;8.90;99.90;;;;;;5118680;28;20453;-61
2023/05/30 03:27:50;;;;;;;12.83;8.03;;;8.90;99.90;;;;;;5119796;28;20537;-62
2023/05/30 03:30:18;;;;;;;12.37;8.20;;;8.80;99.90;;;;;;5120264;28;20471;-61
2023/05/30 03:32:48;;;;;;;18.17;8.57;;;8.80;99.90;;;;;;5119462;28;20438;-63
2023/05/30 03:35:16;;;;;;;17.97;9.30;;;8.70;99.90;;;;;;5120035;28;20464;-62
2023/05/30 03:37:43;;;;;;;15.20;8.77;;;8.70;99.90;;;;;;5119805;28;20438;-61
2023/05/30 03:40:11;;;;;;;13.67;9.80;;;8.70;99.90;;;;;;5119630;28;20445;-62
2023/05/30 03:42:40;;;;;;;12.77;7.47;;;8.70;99.90;;;;;;5119986;28;20815;-61
2023/05/30 03:45:08;;;;;;;16.07;8.00;;;8.70;99.90;;;;;;5119520;28;20862;-61
2023/05/30 03:47:35;;;;;;;19.83;8.30;;;8.60;99.90;;;;;;5119645;28;20554;-61
2023/05/30 03:50:02;;;;;;;14.23;8.53;;;8.60;99.90;;;;;;5119400;28;20470;-61
2023/05/30 03:52:30;;;;;;;14.40;7.77;;;8.60;99.90;;;;;;5119377;28;20438;-62
2023/05/30 03:54:57;;;;;;;20.33;9.20;;;8.60;99.90;;;;;;5119139;28;20528;-62
2023/05/30 03:57:24;;;;;;;16.57;9.00;;;8.60;99.90;;;;;;5119422;28;20879;-62
2023/05/30 03:59:53;;;;;;;15.47;8.17;;;8.60;99.90;;;;;;5119194;28;20829;-62
2023/05/30 04:02:20;;;;;;;24.10;9.50;;;8.60;99.90;;;;;;5118471;28;20490;-63
2023/05/30 04:04:47;;;;;;;22.87;9.63;;;8.60;99.90;;;;;;5119037;28;20579;-62
2023/05/30 04:07:15;;;;;;;16.23;8.53;;;8.50;99.90;;;;;;5118703;28;20463;-62
2023/05/30 04:09:42;;;;;;;15.90;8.10;;;8.60;1.00;;;;;;5118796;28;20433;-63
2023/05/30 04:12:10;;;;;;;17.20;8.30;;;8.60;99.90;;;;;;5118995;28;20832;-62
2023/05/30 04:14:37;;;;;;;16.53;8.33;;;8.60;1.00;;;;;;5119309;28;20448;-62
2023/05/30 04:17:07;;;;;;;14.40;7.93;;;8.50;1.00;;;;;;5118492;28;20468;-62
2023/05/30 04:19:34;;;;;;;16.23;7.97;;;8.50;1.00;;;;;;5118827;28;20460;-61
2023/05/30 04:22:01;;;;;;;18.23;8.70;;;8.50;1.00;;;;;;5118777;28;20554;-61
2023/05/30 04:24:30;;;;;;;13.60;7.43;;;8.60;1.00;;;;;;5118997;28;20734;-65
2023/05/30 04:26:57;;;;;;;18.20;7.67;;;8.50;99.90;;;;;;5118514;28;20434;-62
2023/05/30 04:29:25;;;;;;;21.07;8.07;;;8.50;1.00;;;;;;5118554;28;20464;-62
2023/05/30 04:31:52;;;;;;;15.93;8.87;;;8.60;1.00;;;;;;5118551;28;20463;-62
2023/05/30 04:34:22;;;;;;;15.90;9.13;;;8.60;99.90;;;;;;5118874;28;20904;-62
2023/05/30 04:36:53;;;;;;;17.53;9.37;;;8.60;1.00;;;;;;5117960;28;20464;-62
2023/05/30 04:39:20;;;;;;;17.20;8.70;;;8.60;99.90;;;;;;5118642;28;20527;-62
2023/05/30 04:41:47;;;;;;;17.77;9.23;;;8.60;99.90;;;;;;5118377;28;20553;-62
2023/05/30 04:44:15;;;;;;;15.20;8.67;;;8.60;99.90;;;;;;5118705;28;20943;-62
2023/05/30 04:46:46;;;;;;;15.83;8.60;;;8.70;99.90;;;;;;5118232;28;20459;-62
2023/05/30 04:49:14;;;;;;;14.67;8.90;;;8.80;99.90;;;;;;5118071;28;20829;-62
2023/05/30 04:51:43;;;;;;;16.37;9.17;;;8.80;99.90;;;;;;5118464;28;20818;-62
2023/05/30 04:54:10;;;;;;;19.17;8.63;;;9.00;99.90;;;;;;5118237;28;20460;-62
2023/05/30 04:56:38;;;;;;;12.93;8.27;;;9.10;99.90;;;;;;5118225;28;20460;-62
2023/05/30 04:59:06;;;;;;;13.57;8.30;;;9.10;99.90;;;;;;5118120;28;20467;-62
2023/05/30 05:01:35;;;;;;;16.37;8.97;;;9.20;99.90;;;;;;5117516;28;20521;-62
2023/05/30 05:04:03;;;;;;;18.00;9.80;;;9.20;99.90;;;;;;5117728;28;20520;-62
2023/05/30 05:06:31;;;;;;;15.23;8.53;;;9.30;99.90;;;;;;5117924;28;20496;-62
2023/05/30 05:09:00;;;;;;;15.47;8.50;;;9.40;99.90;;;;;;5118283;28;20752;-62
2023/05/30 05:11:27;;;;;;;17.30;10.20;;;9.50;99.90;;;;;;5118001;28;20460;-62
2023/05/30 05:13:54;;;;;;;19.87;10.97;;;9.60;99.90;;;;;;5117771;28;20579;-62
2023/05/30 05:16:21;;;;;;;12.20;8.80;;;9.60;90.30;;;;;;5117894;28;20768;-63
2023/05/30 05:18:49;;;;;;;20.87;9.07;;;9.70;99.90;;;;;;5117663;28;20734;-62
2023/05/30 05:21:16;;;;;;;25.73;8.63;;;9.60;99.90;;;;;;5117748;28;20466;-62
2023/05/30 05:23:44;;;;;;;16.50;9.13;;;9.80;99.90;;;;;;5117556;28;20590;-62
2023/05/30 05:26:12;;;;;;;15.70;10.17;;;9.80;79.10;;;;;;5117808;28;20514;-63
2023/05/30 05:28:39;;;;;;;13.40;8.33;;;9.90;23.00;;;;;;5118081;28;20901;-62
2023/05/30 05:31:06;;;;;;;17.80;8.63;;;9.90;1.00;;;;;;5117511;28;20906;-62
2023/05/30 05:33:34;;;;;;;20.07;9.23;;;9.90;1.00;;;;;;5117691;28;20538;-63
2023/05/30 05:36:02;;;;;;;15.73;8.87;;;9.90;1.00;;;;;;5117716;28;20463;-62
2023/05/30 05:38:29;;;;;;;14.77;8.77;;;10.00;1.00;;;;;;5117352;28;20657;-62
2023/05/30 05:40:56;;;;;;;22.23;9.10;;;10.10;1.00;;;;;;5116067;28;20437;-62
2023/05/30 05:43:25;;;;;;;15.20;8.70;;;10.20;1.00;;;;;;5117524;28;20537;-62
2023/05/30 05:45:52;;;;;;;17.37;10.00;;;10.40;1.00;;;;;;5117674;28;20554;-62
2023/05/30 05:48:20;;;;;;;17.17;9.60;;;10.60;1.00;;;;;;5116704;28;20479;-63
2023/05/30 05:50:47;;;;;;;16.37;9.70;;;10.80;1.00;;;;;;5100830;28;20549;-63
2023/05/30 05:53:14;;;;;;;16.13;9.57;;;10.70;99.90;;;;;;5101920;28;20530;-62
2023/05/30 05:55:41;;;;;;;19.10;9.53;;;10.80;1.00;;;;;;5101044;28;20547;-62
2023/05/30 05:58:08;;;;;;;17.23;9.90;;;11.10;99.90;;;;;;5101283;28;20449;-63
2023/05/30 06:00:37;;;;;;;21.40;9.83;;;11.10;99.90;;;;;;5101192;28;20456;-62
2023/05/30 06:03:04;;;;;;;16.57;9.17;;;11.20;99.90;;;;;;5100590;28;20968;-63
2023/05/30 06:05:31;;;;;;;13.73;9.07;;;11.40;99.90;;;;;;5101003;28;20492;-63
2023/05/30 06:07:59;;;;;;;16.40;9.13;;;11.60;99.90;;;;;;5101156;28;20460;-62
2023/05/30 06:10:27;;;;;;;12.13;8.70;;;11.80;32.90;;;;;;5100927;28;20889;-63
2023/05/30 06:12:55;;;;;;;14.13;8.07;;;11.90;1.00;;;;;;5117924;28;20455;-63
2023/05/30 06:15:22;;;;;;;15.60;8.70;;;12.20;1.00;;;;;;5120331;28;20539;-63
2023/05/30 06:17:50;;;;;;;10.63;7.80;;;12.20;1.00;;;;;;5120382;28;20859;-62
2023/05/30 06:20:18;;;;;;;16.07;9.53;;;12.60;1.00;;;;;;5120275;28;20942;-63
2023/05/30 06:22:45;;;;;;;12.60;7.90;;;12.80;1.00;;;;;;5120108;28;20771;-63
2023/05/30 06:25:12;;;;;;;11.83;7.90;;;12.90;1.00;;;;;;5119875;28;20570;-63
2023/05/30 06:27:39;;;;;;;12.13;8.27;;;13.10;99.90;;;;;;5120334;28;20458;-62
2023/05/30 06:30:08;;;;;;;12.50;7.30;;;13.10;99.90;;;;;;5120362;28;20967;-62
2023/05/30 06:32:35;;;;;;;12.33;8.57;;;13.40;99.90;;;;;;5117992;28;20487;-63
2023/05/30 06:35:04;;;;;;;12.90;7.20;;;13.50;99.90;;;;;;5119170;28;20450;-63
2023/05/30 06:37:31;;;;;;;15.53;7.23;;;13.50;99.90;;;;;;5119501;28;20462;-63
2023/05/30 06:39:58;;;;;;;16.40;7.70;;;13.50;99.90;;;;;;5120055;28;20524;-64
2023/05/30 06:42:25;;;;;;;10.17;7.47;;;13.50;94.50;;;;;;5117395;28;20574;-63
2023/05/30 06:44:53;;;;;;;13.30;7.50;;;13.70;99.90;;;;;;5119562;28;20915;-64
2023/05/30 06:47:20;;;;;;;17.83;7.80;;;13.80;90.30;;;;;;5119900;28;20462;-65
2023/05/30 06:49:48;;;;;;;16.13;8.80;;;14.20;94.60;;;;;;5119587;28;20547;-63
2023/05/30 06:52:16;;;;;;;14.03;8.87;;;14.00;1.00;;;;;;5120609;28;20554;-63
2023/05/30 06:54:43;;;;;;;10.83;7.37;;;13.80;32.00;;;;;;5120515;28;20846;-62
2023/05/30 06:57:10;;;;;;;12.13;8.10;;;14.00;28.10;;;;;;5121087;28;20920;-61
2023/05/30 06:59:38;;;;;;;21.70;7.90;;;14.20;1.00;;;;;;5119701;28;20459;-61
2023/05/30 07:02:05;;;;;;;12.80;8.30;;;14.40;1.00;;;;;;5120817;28;20466;-61
2023/05/30 07:04:32;;;;;;;12.77;7.97;;;14.70;1.00;;;;;;5120231;28;21047;-62
2023/05/30 07:07:00;;;;;;;13.80;8.27;;;14.60;1.00;;;;;;5120918;28;20466;-60
2023/05/30 07:09:28;;;;;;;10.13;8.37;;;14.00;1.00;;;;;;5119519;28;20947;-60
2023/05/30 07:11:56;;;;;;;13.33;8.20;;;14.10;1.00;;;;;;5119303;28;20955;-59
2023/05/30 07:14:23;;;;;;;13.70;8.13;;;14.30;1.00;;;;;;5120242;28;20456;-61
2023/05/30 07:16:50;;;;;;;16.20;9.30;;;14.60;1.00;;;;;;5120039;28;20518;-60
2023/05/30 07:19:17;;;;;;;11.87;8.17;;;14.70;1.00;;;;;;5119973;28;20459;-60
2023/05/30 07:21:44;;;;;;;15.90;8.13;;;14.80;1.00;;;;;;5120684;28;20498;-59
2023/05/30 07:24:12;;;;;;;13.77;9.03;;;15.00;1.00;;;;;;5120225;28;20463;-60
2023/05/30 07:26:40;;;;;;;10.47;7.93;;;14.50;1.00;;;;;;5120579;28;20455;-61
2023/05/30 07:29:07;;;;;;;9.97;8.07;;;14.60;1.00;;;;;;5119714;28;20467;-62
2023/05/30 07:31:34;;;;;;;16.23;7.40;;;15.10;1.00;;;;;;5117274;28;20452;-61
2023/05/30 07:34:02;;;;;;;11.87;6.67;;;15.30;1.00;;;;;;5118154;28;20451;-61
2023/05/30 07:36:29;;;;;;;12.13;7.43;;;15.20;1.00;;;;;;5118754;28;20467;-61
2023/05/30 07:38:56;;;;;;;12.90;7.10;;;15.30;1.00;;;;;;5118471;28;20766;-59
2023/05/30 07:41:23;;;;;;;9.10;7.73;;;15.80;1.00;;;;;;5118378;28;20458;-63
2023/05/30 07:43:52;;;;;;;11.90;8.23;;;15.20;1.00;;;;;;5118179;28;20486;-59
2023/05/30 07:46:20;;;;;;;12.93;6.87;;;15.30;1.00;;;;;;5118557;28;20494;-59
2023/05/30 07:48:47;;;;;;;13.33;7.43;;;15.60;1.00;;;;;;5116913;28;20829;-60
2023/05/30 07:51:14;;;;;;;18.70;7.80;;;15.70;1.00;;;;;;5116929;28;20479;-60
2023/05/30 07:53:41;;;;;;;13.40;7.97;;;15.90;1.00;;;;;;5117125;28;20554;-59
2023/05/30 07:56:08;;;;;;;13.13;7.57;;;16.10;1.00;;;;;;5117105;28;20506;-59
2023/05/30 07:58:36;;;;;;;14.03;7.90;;;16.30;1.00;;;;;;5117949;28;20944;-59
2023/05/30 08:01:05;;;;;;;13.97;8.40;;;16.40;1.00;;;;;;5113304;28;20550;-59
2023/05/30 08:03:33;;;;;;;14.53;8.47;;;16.40;1.00;;;;;;5111327;28;20471;-60
2023/05/30 08:06:00;;;;;;;13.30;8.47;;;16.50;1.00;;;;;;5115143;28;20495;-59
2023/05/30 08:08:27;;;;;;;14.60;7.63;;;16.40;1.00;;;;;;5119263;28;20873;-59
2023/05/30 08:10:54;;;;;;;12.90;7.77;;;16.70;1.00;;;;;;5118437;28;20466;-60
2023/05/30 08:13:26;;;;;;;12.80;8.17;;;16.90;1.00;;;;;;5118221;28;20520;-60
2023/05/30 08:15:54;;;;;;;11.63;7.73;;;16.90;1.00;;;;;;5116184;28;20460;-60
2023/05/30 08:18:23;;;;;;;12.70;7.80;;;16.90;99.90;;;;;;5117233;28;20468;-62
2023/05/30 08:20:51;;;;;;;11.83;7.57;;;17.00;99.90;;;;;;5118711;28;20463;-60
2023/05/30 08:23:18;;;;;;;9.87;7.07;;;17.00;1.00;;;;;;5118351;28;20459;-59
2023/05/30 08:25:46;;;;;;;8.67;7.03;;;17.30;1.00;;;;;;5118256;28;20578;-58
2023/05/30 08:28:14;;;;;;;10.50;7.63;;;17.80;1.00;;;;;;5119017;28;20892;-59
2023/05/30 08:30:44;;;;;;;10.50;7.50;;;18.00;1.00;;;;;;5119125;28;20483;-59
2023/05/30 08:33:13;;;;;;;11.50;7.43;;;18.30;99.90;;;;;;5118668;28;20593;-60
2023/05/30 08:35:42;;;;;;;10.90;7.63;;;18.00;99.90;;;;;;5118960;28;20907;-60
2023/05/30 08:38:09;;;;;;;8.10;6.87;;;17.70;99.90;;;;;;5119261;28;20890;-61
2023/05/30 08:40:41;;;;;;;10.03;7.53;;;17.90;99.90;;;;;;5119023;28;20460;-58
2023/05/30 08:43:08;;;;;;;10.97;7.57;;;17.30;99.90;;;;;;5118562;28;20495;-60
2023/05/30 08:45:35;;;;;;;10.27;7.77;;;18.00;99.90;;;;;;5102724;28;20498;-58
2023/05/30 08:48:03;;;;;;;11.20;7.10;;;18.20;99.90;;;;;;5097615;28;20461;-59
2023/05/30 08:50:31;;;;;;;11.80;7.83;;;18.50;99.90;;;;;;5098313;28;20460;-61
2023/05/30 08:53:07;;;;;;;14.20;8.13;;;18.70;99.90;;;;;;5098038;28;20745;-61
2023/05/30 08:55:38;;;;;;;12.83;7.30;;;18.60;99.90;;;;;;5097830;28;20543;-60
2023/05/30 08:58:10;;;;;;;13.60;8.10;;;18.60;99.90;;;;;;5097845;28;20464;-60
2023/05/30 09:00:38;;;;;;;13.90;7.83;;;18.70;99.90;;;;;;5098136;28;20485;-58
2023/05/30 09:03:07;;;;;;;16.00;8.13;;;19.00;99.90;;;;;;5097646;28;20952;-60
2023/05/30 09:05:35;;;;;;;11.37;8.23;;;18.70;99.90;;;;;;5097996;28;20859;-58
2023/05/30 09:08:04;;;;;;;14.33;9.23;;;19.00;99.90;;;;;;5098309;28;20897;-60
2023/05/30 09:10:32;;;;;;;11.57;7.97;;;18.90;99.90;;;;;;5098733;28;20559;-61
2023/05/30 09:13:00;;;;;;;12.40;8.57;;;19.20;99.90;;;;;;5097965;28;20467;-60
2023/05/30 09:15:27;;;;;;;15.40;8.17;;;18.20;99.90;;;;;;5098013;28;20457;-61
2023/05/30 09:17:55;;;;;;;17.00;9.33;;;18.50;99.90;;;;;;5098207;28;20503;-61
2023/05/30 09:20:23;;;;;;;10.60;7.50;;;19.10;99.90;;;;;;5097741;28;20522;-61
2023/05/30 09:22:52;;;;;;;12.97;9.17;;;18.40;99.90;;;;;;5097165;28;20470;-61
2023/05/30 09:25:20;;;;;;;10.60;7.50;;;19.40;99.90;;;;;;5097146;28;20538;-61
2023/05/30 09:27:52;;;;;;;11.53;8.20;;;19.20;99.90;;;;;;5097587;28;20498;-60
2023/05/30 09:30:20;;;;;;;11.40;7.63;;;19.70;99.90;;;;;;5097982;28;20500;-61
2023/05/30 09:33:01;;;;;;;18.37;9.07;;;20.20;99.90;;;;;;5097434;28;20438;-60
2023/05/30 09:35:28;;;;;;;10.63;8.20;;;20.70;99.90;;;;;;5097620;28;20435;-60
2023/05/30 09:37:55;;;;;;;11.30;8.13;;;20.40;99.90;;;;;;5097273;28;20563;-60
2023/05/30 09:40:25;;;;;;;10.33;8.70;;;20.60;99.90;;;;;;5097830;28;20753;-61
2023/05/30 09:42:55;;;;;;;13.80;8.97;;;20.70;99.90;;;;;;5097485;28;20460;-61
2023/05/30 09:45:24;;;;;;;11.87;8.77;;;19.90;99.90;;;;;;5097949;28;20484;-61
2023/05/30 09:47:52;;;;;;;14.90;9.07;;;20.70;99.90;;;;;;5098118;28;20534;-60
2023/05/30 09:50:21;;;;;;;9.80;7.90;;;20.80;93.00;;;;;;5098387;28;20460;-61
2023/05/30 09:52:51;;;;;;;14.13;8.00;;;21.30;98.10;;;;;;5096889;28;20936;-62
2023/05/30 09:55:19;;;;;;;9.23;8.23;;;21.50;48.00;;;;;;5109638;28;20455;-60
2023/05/30 09:57:49;;;;;;;9.97;7.13;;;21.20;11.60;;;;;;5118064;28;20459;-60
2023/05/30 10:00:18;;;;;;;9.67;8.23;;;21.50;12.80;;;;;;5118279;28;20487;-60
2023/05/30 10:06:13;;;;;;;13.50;7.63;;;21.90;1.00;;;;;;5118059;28;20929;-61
2023/05/30 10:08:43;;;;;;;8.07;7.27;;;22.00;1.00;;;;;;5118300;28;20538;-61
2023/05/30 10:11:11;;;;;;;11.30;7.60;;;21.80;1.00;;;;;;5117988;28;20555;-61
2023/05/30 10:13:40;;;;;;;7.70;6.90;;;22.30;1.00;;;;;;5117966;28;20464;-61
2023/05/30 10:16:12;;;;;;;13.20;7.37;;;21.80;1.00;;;;;;5118091;28;20542;-60
2023/05/30 10:18:44;;;;;;;9.07;7.43;;;21.30;1.00;;;;;;5118459;28;20555;-60
2023/05/30 10:21:15;;;;;;;10.30;7.20;;;21.00;1.00;;;;;;5117639;28;20487;-61
2023/05/30 10:23:43;;;;;;;10.40;6.70;;;21.80;1.00;;;;;;5118292;28;20469;-60
2023/05/30 10:26:13;;;;;;;12.67;7.27;;;22.10;1.00;;;;;;5117650;28;20587;-60
2023/05/30 10:28:44;;;;;;;8.23;7.40;;;22.50;1.00;;;;;;5116776;28;20503;-60
2023/05/30 10:31:13;;;;;;;13.00;8.50;;;22.30;1.00;;;;;;5116855;28;20459;-60
2023/05/30 10:33:43;;;;;;;17.07;7.77;;;22.70;1.00;;;;;;5115142;28;20495;-59
2023/05/30 10:36:11;;;;;;;15.60;6.80;;;22.60;1.00;;;;;;5116709;28;20935;-61
2023/05/30 10:38:44;;;;;;;9.07;7.33;;;22.70;1.00;;;;;;5107944;28;20494;-61
2023/05/30 10:41:19;;;;;;;12.63;7.33;;;21.50;1.00;;;;;;5120340;28;20557;-61
2023/05/30 10:43:56;;;;;;;12.87;9.23;;;21.70;1.00;;;;;;5121596;28;20816;-61
2023/05/30 10:46:42;;;;;;;11.70;7.87;;;21.60;1.00;;;;;;5121351;28;20585;-61
2023/05/30 10:49:14;;;;;;;10.60;7.67;;;21.80;1.00;;;;;;5121206;28;20459;-60
2023/05/30 10:51:59;;;;;;;13.20;7.93;;;22.30;1.00;;;;;;5119949;27;20486;-60
2023/05/30 10:54:30;;;;;;;10.83;8.17;;;22.60;1.00;;;;;;5120131;28;20546;-59
2023/05/30 10:56:57;;;;;;;9.53;7.67;;;22.60;1.00;;;;;;5121372;27;20459;-59
2023/05/30 10:59:26;;;;;;;12.03;7.50;;;22.80;1.00;;;;;;5122622;28;20561;-59
2023/05/30 11:02:01;;;;;;;10.47;7.40;;;23.20;1.00;;;;;;5121562;28;20847;-60
2023/05/30 11:04:34;;;;;;;8.87;7.13;;;23.10;1.00;;;;;;5121134;28;20469;-60
2023/05/30 11:07:04;;;;;;;10.70;6.93;;;22.50;1.00;;;;;;5118493;28;20560;-61
2023/05/30 11:09:31;;;;;;;11.13;7.37;;;21.50;1.00;;;;;;5118757;28;20558;-57
2023/05/30 11:12:02;;;;;;;9.27;6.80;;;21.60;1.00;;;;;;5120915;28;20812;-57
2023/05/30 11:14:33;;;;;;;7.57;6.37;;;22.50;1.00;;;;;;5119129;28;20483;-56
2023/05/30 11:17:02;;;;;;;8.93;6.50;;;23.10;1.00;;;;;;5116774;28;20939;-56
2023/05/30 11:19:36;;;;;;;11.57;6.93;;;23.50;1.00;;;;;;5118079;28;20483;-58
2023/05/30 11:22:05;;;;;;;9.43;7.13;;;24.00;1.00;;;;;;5117868;28;20466;-56
2023/05/30 11:24:33;;;;;;;11.77;7.50;;;23.70;1.00;;;;;;5118508;28;20856;-58
2023/05/30 11:27:08;;;;;;;11.33;6.93;;;23.60;1.00;;;;;;5117149;27;20487;-57
2023/05/30 11:29:44;;;;;;;7.97;7.00;;;23.50;1.00;;;;;;5113134;28;20487;-58
2023/05/30 11:32:12;;;;;;;9.60;6.60;;;23.80;1.00;;;;;;5117144;28;20455;-56
2023/05/30 11:34:39;;;;;;;9.03;7.30;;;22.70;1.00;;;;;;5111859;27;20511;-57
2023/05/30 11:37:08;;;;;;;13.57;6.80;;;22.50;1.00;;;;;;5115969;28;20536;-57
2023/05/30 11:39:36;;;;;;;9.90;7.60;;;22.50;1.00;;;;;;5108580;28;21165;-58
2023/05/30 11:42:05;;;;;;;10.60;6.87;;;22.50;1.00;;;;;;5114944;28;20908;-55
2023/05/30 11:44:33;;;;;;;11.40;7.83;;;22.50;1.00;;;;;;5115305;28;20467;-56
2023/05/30 11:47:03;;;;;;;8.07;6.90;;;22.80;1.00;;;;;;5113903;28;20865;-56
2023/05/30 11:49:30;;;;;;;9.17;7.20;;;23.40;1.00;;;;;;5113031;28;20488;-56
2023/05/30 11:51:58;;;;;;;7.37;6.60;;;23.00;1.00;;;;;;5111085;28;20475;-55
2023/05/30 11:54:26;;;;;;;10.37;7.60;;;23.30;1.00;;;;;;5117061;28;20550;-56
2023/05/30 11:56:55;;;;;;;9.90;7.10;;;23.80;1.00;;;;;;5117762;28;20955;-56
2023/05/30 11:59:24;;;;;;;8.03;6.57;;;23.80;1.00;;;;;;5117498;28;20555;-52
2023/05/30 12:01:57;;;;;;;9.57;7.10;;;24.10;1.00;;;;;;5118682;28;20479;-58
2023/05/30 12:04:30;;;;;;;8.60;6.60;;;24.80;1.00;;;;;;5117729;28;20506;-52
2023/05/30 12:06:59;;;;;;;8.43;6.77;;;24.40;1.00;;;;;;5114405;28;20578;-53
2023/05/30 12:09:26;;;;;;;10.00;8.20;;;24.50;1.00;;;;;;5115710;27;20744;-58
2023/05/30 12:11:59;;;;;;;9.23;7.30;;;24.70;1.00;;;;;;5115565;28;20469;-57
2023/05/30 12:14:31;;;;;;;9.77;7.27;;;23.90;1.00;;;;;;5116685;28;20524;-56
2023/05/30 12:16:58;;;;;;;11.93;6.70;;;23.80;1.00;;;;;;5114121;28;20773;-56
2023/05/30 12:19:33;;;;;;;8.87;7.80;;;24.30;1.00;;;;;;5115913;28;20567;-60
2023/05/30 12:22:04;;;;;;;8.63;7.80;;;23.50;1.00;;;;;;5110624;28;20493;-57
2023/05/30 12:24:36;;;;;;;9.20;7.50;;;23.30;99.90;;;;;;5117334;28;20460;-57
2023/05/30 12:27:05;;;;;;;9.00;6.97;;;24.20;1.00;;;;;;5106926;27;20488;-52
2023/05/30 12:29:33;;;;;;;10.27;7.10;;;24.20;1.00;;;;;;5109893;28;20528;-52
2023/05/30 12:32:01;;;;;;;6.40;5.80;;;23.80;1.00;;;;;;5114590;28;20439;-58
2023/05/30 12:34:46;;;;;;;9.30;7.97;;;24.40;1.00;;;;;;5116287;28;20442;-58
2023/05/30 12:37:15;;;;;;;7.90;7.10;;;24.90;1.00;;;;;;5114538;27;20466;-59
2023/05/30 12:39:50;;;;;;;10.00;8.43;;;24.90;1.00;;;;;;5114957;27;20550;-59
2023/05/30 12:42:21;;;;;;;8.70;7.17;;;24.80;1.00;;;;;;5115536;28;20895;-58
2023/05/30 12:44:50;;;;;;;9.63;7.60;;;24.60;1.00;;;;;;5110908;28;20493;-58
2023/05/30 12:47:18;;;;;;;7.73;6.93;;;24.60;1.00;;;;;;5127381;27;20529;-58
2023/05/30 12:49:46;;;;;;;9.10;7.40;;;24.50;1.00;;;;;;5112614;28;20471;-59
2023/05/30 12:52:15;;;;;;;12.03;8.20;;;24.60;1.00;;;;;;5117351;28;20475;-58
2023/05/30 12:54:43;;;;;;;12.07;7.73;;;24.10;99.90;;;;;;5116834;28;20468;-57
2023/05/30 12:57:11;;;;;;;11.30;6.37;;;23.50;99.90;;;;;;5114737;27;20458;-58
2023/05/30 12:59:39;;;;;;;8.00;7.03;;;24.50;1.00;;;;;;5111061;28;20891;-58